Time;durP1;ratioP1;P1;durP2;ratioP2;P2;SDS_P1;SDS_P2;PMS_P1;PMS_P2;Temp;Humidity;BMP_temperature;BMP_pressure;BME280_temperature;BME280_humidity;BME280_pressure;Samples;Min_cycle;Max_cycle;Signal;HPM_P1;HPM_P2
2021/06/09 00:01:05;;;;;;;;;;;16.70;1.00;;;;;;5031158;28;20018;-65
2021/06/09 00:03:31;;;;;;;;;;;16.70;1.00;;;;;;5030060;28;20281;-66
2021/06/09 00:05:57;;;;;;;;;;;16.70;1.00;;;;;;5030753;28;19916;-65
2021/06/09 00:08:23;;;;;;;;;;;16.70;1.00;;;;;;5030568;28;19913;-68
2021/06/09 00:10:51;;;;;;;;;;;16.70;1.00;;;;;;5030499;28;19940;-69
2021/06/09 00:13:17;;;;;;;;;;;16.70;1.00;;;;;;5030107;28;19935;-69
2021/06/09 00:15:43;;;;;;;;;;;16.80;1.00;;;;;;5030244;28;19997;-68
2021/06/09 00:18:08;;;;;;;;;;;16.80;1.00;;;;;;5030026;28;20017;-66
2021/06/09 00:20:34;;;;;;;;;;;16.80;1.00;;;;;;5030369;28;19909;-65
2021/06/09 00:22:59;;;;;;;;;;;16.70;1.00;;;;;;5028947;28;20405;-69
2021/06/09 00:25:25;;;;;;;;;;;16.70;1.00;;;;;;5029759;28;19917;-69
2021/06/09 00:27:52;;;;;;;;;;;16.70;1.00;;;;;;5030448;28;19996;-69
2021/06/09 00:30:23;;;;;;;;;;;16.60;1.00;;;;;;5029451;28;19921;-70
2021/06/09 00:32:49;;;;;;;;;;;16.60;1.00;;;;;;5030291;28;20310;-65
2021/06/09 00:35:14;;;;;;;;;;;16.60;1.00;;;;;;5029918;28;20008;-64
2021/06/09 00:37:40;;;;;;;;;;;16.60;1.00;;;;;;5030460;28;20335;-67
2021/06/09 00:40:07;;;;;;;;;;;16.60;1.00;;;;;;5029254;28;20252;-66
2021/06/09 00:42:32;;;;;;;;;;;16.60;1.00;;;;;;5030334;28;19909;-66
2021/06/09 00:44:58;;;;;;;;;;;16.60;1.00;;;;;;5029500;28;19917;-65
2021/06/09 00:47:24;;;;;;;;;;;16.60;1.00;;;;;;5030200;28;19928;-65
2021/06/09 00:49:50;;;;;;;;;;;16.60;1.00;;;;;;5029923;28;20040;-66
2021/06/09 00:52:21;;;;;;;;;;;16.50;1.00;;;;;;5029962;28;20330;-65
2021/06/09 00:54:46;;;;;;;;;;;16.50;1.00;;;;;;5029514;28;19909;-64
2021/06/09 00:57:12;;;;;;;;;;;16.40;1.00;;;;;;5029589;28;19909;-67
2021/06/09 00:59:38;;;;;;;;;;;16.40;1.00;;;;;;5029151;28;19956;-67
2021/06/09 01:02:04;;;;;;;;;;;16.30;1.00;;;;;;5029338;28;19917;-66
2021/06/09 01:04:30;;;;;;;;;;;16.30;1.00;;;;;;5028883;28;19948;-65
2021/06/09 01:06:59;;;;;;;;;;;16.30;1.00;;;;;;5029239;28;19913;-64
2021/06/09 01:09:25;;;;;;;;;;;16.30;1.00;;;;;;5029227;28;19990;-65
2021/06/09 01:11:51;;;;;;;;;;;16.30;1.00;;;;;;5029426;28;20107;-68
2021/06/09 01:14:16;;;;;;;;;;;16.30;1.00;;;;;;5029272;28;19972;-65
2021/06/09 01:16:42;;;;;;;;;;;16.20;1.00;;;;;;5029334;28;20846;-64
2021/06/09 01:19:07;;;;;;;;;;;16.20;1.00;;;;;;5029200;28;20011;-65
2021/06/09 01:21:33;;;;;;;;;;;16.20;1.00;;;;;;5029317;28;20001;-67
2021/06/09 01:23:59;;;;;;;;;;;16.20;1.00;;;;;;5027417;28;19939;-66
2021/06/09 01:26:26;;;;;;;;;;;16.10;1.00;;;;;;5028736;28;19917;-69
2021/06/09 01:28:55;;;;;;;;;;;16.00;1.00;;;;;;5028783;28;20020;-68
2021/06/09 01:31:21;;;;;;;;;;;16.00;1.00;;;;;;5028065;28;19919;-64
2021/06/09 01:33:47;;;;;;;;;;;15.90;1.00;;;;;;5028993;28;19909;-64
2021/06/09 01:36:12;;;;;;;;;;;15.90;1.00;;;;;;5031497;28;19916;-64
2021/06/09 01:38:38;;;;;;;;;;;15.90;1.00;;;;;;5032049;28;20016;-64
2021/06/09 01:41:03;;;;;;;;;;;15.90;1.00;;;;;;5031550;28;19915;-67
2021/06/09 01:43:30;;;;;;;;;;;15.90;1.00;;;;;;5032080;28;19916;-64
2021/06/09 01:45:56;;;;;;;;;;;15.90;1.00;;;;;;5032054;28;19910;-64
2021/06/09 01:48:21;;;;;;;;;;;15.90;1.00;;;;;;5032531;28;19935;-67
2021/06/09 01:50:47;;;;;;;;;;;15.90;1.00;;;;;;5031950;28;19976;-65
2021/06/09 01:53:12;;;;;;;;;;;15.90;1.00;;;;;;5032419;28;19909;-65
2021/06/09 01:55:38;;;;;;;;;;;15.80;1.00;;;;;;5032564;28;19939;-65
2021/06/09 01:58:05;;;;;;;;;;;15.80;1.00;;;;;;5031611;28;20406;-68
2021/06/09 02:00:32;;;;;;;;;;;15.80;1.00;;;;;;5030691;28;20388;-64
2021/06/09 02:02:58;;;;;;;;;;;15.80;1.00;;;;;;5032592;28;19909;-65
2021/06/09 02:05:28;;;;;;;;;;;15.80;1.00;;;;;;5032581;28;19916;-66
2021/06/09 02:07:55;;;;;;;;;;;15.80;1.00;;;;;;5032314;28;20004;-67
2021/06/09 02:10:20;;;;;;;;;;;15.80;1.00;;;;;;5038223;28;19913;-65
2021/06/09 02:12:47;;;;;;;;;;;15.80;1.00;;;;;;5052555;28;19915;-65
2021/06/09 02:15:13;;;;;;;;;;;15.80;1.00;;;;;;5051637;28;19913;-64
2021/06/09 02:17:41;;;;;;;;;;;15.80;1.00;;;;;;5052324;28;19913;-64
2021/06/09 02:20:08;;;;;;;;;;;15.70;1.00;;;;;;5052427;28;19917;-65
2021/06/09 02:22:35;;;;;;;;;;;15.70;1.00;;;;;;5052439;28;20336;-66
2021/06/09 02:25:00;;;;;;;;;;;15.70;1.00;;;;;;5052301;28;19913;-64
2021/06/09 02:27:26;;;;;;;;;;;15.70;1.00;;;;;;5052283;28;19920;-64
2021/06/09 02:29:51;;;;;;;;;;;15.70;1.00;;;;;;5052372;28;19913;-65
2021/06/09 02:32:17;;;;;;;;;;;15.60;1.00;;;;;;5052363;28;19919;-67
2021/06/09 02:34:43;;;;;;;;;;;15.60;1.00;;;;;;5052138;28;19915;-68
2021/06/09 02:37:09;;;;;;;;;;;15.60;1.00;;;;;;5052514;28;19908;-67
2021/06/09 02:39:34;;;;;;;;;;;15.60;1.00;;;;;;5052175;28;20262;-64
2021/06/09 02:42:00;;;;;;;;;;;15.60;1.00;;;;;;5052098;28;19916;-65
2021/06/09 02:44:26;;;;;;;;;;;15.50;1.00;;;;;;5051238;28;20487;-65
2021/06/09 02:46:52;;;;;;;;;;;15.50;1.00;;;;;;5051613;28;19913;-66
2021/06/09 02:49:21;;;;;;;;;;;15.50;1.00;;;;;;5050966;28;20542;-63
2021/06/09 02:51:47;;;;;;;;;;;15.50;1.00;;;;;;5051946;28;20274;-65
2021/06/09 02:54:20;;;;;;;;;;;15.50;1.00;;;;;;5051926;28;19916;-64
2021/06/09 02:56:46;;;;;;;;;;;15.40;1.00;;;;;;5053215;28;20317;-66
2021/06/09 02:59:11;;;;;;;;;;;15.40;1.00;;;;;;5051422;28;20012;-66
2021/06/09 03:01:43;;;;;;;;;;;15.30;1.00;;;;;;5051564;28;19991;-65
2021/06/09 03:04:17;;;;;;;;;;;15.30;1.00;;;;;;5051754;28;19909;-66
2021/06/09 03:06:52;;;;;;;;;;;15.20;1.00;;;;;;5033313;28;19920;-65
2021/06/09 03:09:24;;;;;;;;;;;15.30;1.00;;;;;;5050922;28;19929;-69
2021/06/09 03:11:59;;;;;;;;;;;15.30;1.00;;;;;;5051374;28;19909;-66
2021/06/09 03:17:02;;;;;;;;;;;15.20;1.00;;;;;;5051771;28;19917;-65
2021/06/09 03:19:46;;;;;;;;;;;15.30;1.00;;;;;;5051249;28;20656;-65
2021/06/09 03:22:20;;;;;;;;;;;15.30;1.00;;;;;;5051506;28;19908;-64
2021/06/09 03:24:47;;;;;;;;;;;15.30;1.00;;;;;;5051131;28;20317;-64
2021/06/09 03:27:25;;;;;;;;;;;15.30;1.00;;;;;;5051270;28;20402;-64
2021/06/09 03:29:55;;;;;;;;;;;15.40;1.00;;;;;;5050474;28;19927;-64
2021/06/09 03:32:36;;;;;;;;;;;15.50;1.00;;;;;;5051373;28;19916;-66
2021/06/09 03:35:07;;;;;;;;;;;15.50;1.00;;;;;;5050869;28;19909;-65
2021/06/09 03:37:34;;;;;;;;;;;15.60;1.00;;;;;;5034645;28;19913;-66
2021/06/09 03:40:02;;;;;;;;;;;15.60;1.00;;;;;;5030407;28;19909;-65
2021/06/09 03:42:29;;;;;;;;;;;15.70;1.00;;;;;;5030944;28;20387;-65
2021/06/09 03:44:57;;;;;;;;;;;15.70;1.00;;;;;;5037019;28;20411;-66
2021/06/09 03:47:23;;;;;;;;;;;15.80;1.00;;;;;;5029934;28;20282;-66
2021/06/09 03:49:49;;;;;;;;;;;15.80;1.00;;;;;;5027800;28;19914;-66
2021/06/09 03:52:15;;;;;;;;;;;15.90;1.00;;;;;;5029064;28;19920;-66
2021/06/09 03:54:41;;;;;;;;;;;15.90;1.00;;;;;;5028800;28;20371;-66
2021/06/09 03:57:07;;;;;;;;;;;15.80;1.00;;;;;;5028273;28;19920;-66
2021/06/09 03:59:32;;;;;;;;;;;15.90;1.00;;;;;;5028195;28;19913;-66
2021/06/09 04:01:59;;;;;;;;;;;16.00;1.00;;;;;;5032094;28;19917;-66
2021/06/09 04:04:26;;;;;;;;;;;16.00;1.00;;;;;;5040152;28;19916;-66
2021/06/09 04:06:53;;;;;;;;;;;16.10;1.00;;;;;;5049016;28;20011;-65
2021/06/09 04:09:21;;;;;;;;;;;16.20;1.00;;;;;;5048041;28;19913;-66
2021/06/09 04:11:51;;;;;;;;;;;16.20;1.00;;;;;;5030741;28;19976;-66
2021/06/09 04:14:19;;;;;;;;;;;16.30;1.00;;;;;;5028512;28;20583;-66
2021/06/09 04:16:45;;;;;;;;;;;16.40;1.00;;;;;;5028287;28;19918;-65
2021/06/09 04:19:11;;;;;;;;;;;16.60;1.00;;;;;;5027725;28;20447;-65
2021/06/09 04:21:37;;;;;;;;;;;16.70;1.00;;;;;;5028711;28;19936;-65
2021/06/09 04:24:02;;;;;;;;;;;16.70;1.00;;;;;;5027991;28;19917;-66
2021/06/09 04:26:29;;;;;;;;;;;16.80;1.00;;;;;;5028686;28;19913;-65
2021/06/09 04:28:55;;;;;;;;;;;16.90;1.00;;;;;;5027533;28;20460;-66
2021/06/09 04:31:20;;;;;;;;;;;17.00;1.00;;;;;;5036297;28;19917;-66
2021/06/09 04:33:53;;;;;;;;;;;17.10;1.00;;;;;;5038216;28;19967;-65
2021/06/09 04:36:18;;;;;;;;;;;17.30;1.00;;;;;;5020677;28;19909;-66
2021/06/09 04:38:44;;;;;;;;;;;17.40;1.00;;;;;;5026264;28;20273;-66
2021/06/09 04:41:10;;;;;;;;;;;17.60;1.00;;;;;;5027751;28;19913;-65
2021/06/09 04:43:35;;;;;;;;;;;17.70;1.00;;;;;;5028279;28;19913;-65
2021/06/09 04:46:01;;;;;;;;;;;17.80;1.00;;;;;;5026819;28;19916;-67
2021/06/09 04:48:27;;;;;;;;;;;17.80;1.00;;;;;;5027580;28;19913;-67
2021/06/09 04:50:53;;;;;;;;;;;17.90;1.00;;;;;;5027310;28;19917;-67
2021/06/09 04:53:19;;;;;;;;;;;18.10;1.00;;;;;;5027632;28;19944;-65
2021/06/09 04:55:46;;;;;;;;;;;18.30;1.00;;;;;;5028073;28;19974;-67
2021/06/09 04:58:13;;;;;;;;;;;18.50;99.90;;;;;;5028431;28;19978;-67
2021/06/09 05:00:39;;;;;;;;;;;18.60;99.90;;;;;;5026811;28;19913;-68
2021/06/09 05:03:05;;;;;;;;;;;18.90;99.90;;;;;;5036230;28;19913;-68
2021/06/09 05:05:30;;;;;;;;;;;19.10;1.00;;;;;;5043695;28;19909;-67
2021/06/09 05:07:56;;;;;;;;;;;19.40;99.90;;;;;;5043918;28;19910;-65
2021/06/09 05:10:21;;;;;;;;;;;19.60;1.00;;;;;;5035066;28;19972;-68
2021/06/09 05:12:52;;;;;;;;;;;20.00;99.90;;;;;;5038192;28;19913;-66
2021/06/09 05:15:19;;;;;;;;;;;20.90;1.00;;;;;;5047189;28;19949;-68
2021/06/09 05:17:48;;;;;;;;;;;22.00;1.00;;;;;;5031693;28;20016;-68
2021/06/09 05:20:28;;;;;;;;;;;23.00;99.90;;;;;;5026058;28;19913;-68
2021/06/09 05:23:20;;;;;;;;;;;24.10;1.00;;;;;;5027424;28;20375;-67
2021/06/09 05:25:48;;;;;;;;;;;25.10;1.00;;;;;;5025289;28;19932;-68
2021/06/09 05:28:14;;;;;;;;;;;25.80;1.00;;;;;;5027221;28;19971;-66
2021/06/09 05:30:40;;;;;;;;;;;26.20;1.00;;;;;;5026337;28;19928;-67
2021/06/09 05:33:06;;;;;;;;;;;26.80;99.90;;;;;;5046096;28;20346;-69
2021/06/09 05:35:32;;;;;;;;;;;27.50;99.90;;;;;;5036341;28;19909;-68
2021/06/09 05:37:58;;;;;;;;;;;28.20;99.90;;;;;;5025868;28;19918;-67
2021/06/09 05:40:23;;;;;;;;;;;29.10;99.90;;;;;;5025859;28;19949;-68
2021/06/09 05:42:49;;;;;;;;;;;29.70;99.90;;;;;;5027303;28;19916;-65
2021/06/09 05:45:24;;;;;;;;;;;29.80;99.90;;;;;;5026965;28;19983;-67
2021/06/09 05:47:49;;;;;;;;;;;29.90;99.90;;;;;;5027424;28;20015;-67
2021/06/09 05:50:16;;;;;;;;;;;30.00;99.90;;;;;;5026461;28;20003;-69
2021/06/09 05:52:42;;;;;;;;;;;29.60;99.90;;;;;;5027611;28;19913;-69
2021/06/09 05:55:14;;;;;;;;;;;29.10;99.90;;;;;;5027092;28;20247;-69
2021/06/09 05:57:39;;;;;;;;;;;28.90;99.90;;;;;;5029092;28;19917;-70
2021/06/09 06:00:05;;;;;;;;;;;28.80;99.90;;;;;;5040171;28;19921;-67
2021/06/09 06:02:31;;;;;;;;;;;28.90;99.90;;;;;;5034804;28;20373;-68
2021/06/09 06:04:57;;;;;;;;;;;28.00;99.90;;;;;;5038481;28;19908;-67
2021/06/09 06:07:23;;;;;;;;;;;27.00;99.90;;;;;;5048293;28;19938;-68
2021/06/09 06:09:49;;;;;;;;;;;26.70;99.90;;;;;;5044197;28;19917;-68
2021/06/09 06:12:15;;;;;;;;;;;26.40;99.90;;;;;;5027470;28;20004;-69
2021/06/09 06:14:40;;;;;;;;;;;26.40;99.90;;;;;;5025977;28;19975;-68
2021/06/09 06:17:08;;;;;;;;;;;26.10;99.90;;;;;;5026853;28;20452;-67
2021/06/09 06:19:37;;;;;;;;;;;25.70;99.90;;;;;;5026480;28;19917;-67
2021/06/09 06:22:11;;;;;;;;;;;25.80;99.90;;;;;;5031698;28;19909;-68
2021/06/09 06:24:41;;;;;;;;;;;25.70;99.90;;;;;;5030309;28;19924;-69
2021/06/09 06:27:10;;;;;;;;;;;26.50;99.90;;;;;;5031083;28;19985;-69
2021/06/09 06:29:37;;;;;;;;;;;27.20;99.90;;;;;;5030202;28;19968;-69
2021/06/09 06:32:07;;;;;;;;;;;28.10;99.90;;;;;;5044341;28;19996;-69
2021/06/09 06:34:34;;;;;;;;;;;28.90;99.90;;;;;;5049707;28;19913;-68
2021/06/09 06:37:01;;;;;;;;;;;30.20;99.90;;;;;;5034830;28;20397;-69
2021/06/09 06:39:27;;;;;;;;;;;31.60;99.90;;;;;;5029147;28;19936;-70
2021/06/09 06:41:52;;;;;;;;;;;32.90;99.90;;;;;;5030648;28;20433;-69
2021/06/09 06:44:18;;;;;;;;;;;33.80;99.90;;;;;;5037706;28;19992;-70
2021/06/09 06:46:47;;;;;;;;;;;34.70;99.90;;;;;;5047351;28;20236;-69
2021/06/09 06:49:12;;;;;;;;;;;36.00;99.90;;;;;;5049378;28;20250;-68
2021/06/09 06:51:38;;;;;;;;;;;36.30;99.90;;;;;;5050322;28;19908;-69
2021/06/09 06:54:03;;;;;;;;;;;36.90;99.90;;;;;;5048874;28;19960;-66
2021/06/09 06:56:29;;;;;;;;;;;37.30;99.90;;;;;;5049801;28;19913;-69
2021/06/09 06:58:55;;;;;;;;;;;37.80;99.90;;;;;;5048887;28;19920;-66
2021/06/09 07:01:29;;;;;;;;;;;37.70;99.90;;;;;;5047994;28;19913;-69
2021/06/09 07:03:55;;;;;;;;;;;38.60;99.90;;;;;;5039819;28;19924;-68
2021/06/09 07:06:20;;;;;;;;;;;38.30;99.90;;;;;;5049795;28;19909;-69
2021/06/09 07:08:47;;;;;;;;;;;38.50;99.90;;;;;;5049246;28;19913;-69
2021/06/09 07:11:13;;;;;;;;;;;38.20;99.90;;;;;;5035078;28;20059;-69
2021/06/09 07:13:39;;;;;;;;;;;38.20;99.90;;;;;;5029553;28;19996;-67
2021/06/09 07:16:05;;;;;;;;;;;38.50;99.90;;;;;;5029352;28;19974;-68
2021/06/09 07:18:34;;;;;;;;;;;38.90;99.90;;;;;;5028865;28;19921;-69
2021/06/09 07:20:59;;;;;;;;;;;40.00;99.90;;;;;;5029265;28;19953;-67
2021/06/09 07:23:25;;;;;;;;;;;41.00;99.90;;;;;;5028995;28;20256;-68
2021/06/09 07:25:51;;;;;;;;;;;41.10;99.90;;;;;;5028940;28;19913;-69
2021/06/09 07:28:21;;;;;;;;;;;40.80;99.90;;;;;;5029857;28;19920;-69
2021/06/09 07:30:47;;;;;;;;;;;41.30;99.90;;;;;;5031357;28;19913;-69
2021/06/09 07:33:13;;;;;;;;;;;41.80;99.90;;;;;;5049572;28;19994;-66
2021/06/09 07:35:38;;;;;;;;;;;41.50;99.90;;;;;;5030936;28;19913;-68
2021/06/09 07:38:07;;;;;;;;;;;42.10;99.90;;;;;;5044217;28;20365;-69
2021/06/09 07:40:34;;;;;;;;;;;42.50;99.90;;;;;;5028402;28;20374;-70
2021/06/09 07:43:05;;;;;;;;;;;41.40;99.90;;;;;;5029545;28;19909;-70
2021/06/09 07:45:30;;;;;;;;;;;41.10;99.90;;;;;;5028726;28;20043;-67
2021/06/09 07:47:57;;;;;;;;;;;39.70;96.90;;;;;;5029268;28;20176;-69
2021/06/09 07:50:24;;;;;;;;;;;40.10;96.50;;;;;;5027579;28;20212;-69
2021/06/09 07:52:50;;;;;;;;;;;40.60;94.90;;;;;;5028231;28;19909;-67
2021/06/09 07:55:16;;;;;;;;;;;41.00;93.30;;;;;;5028742;28;20179;-70
2021/06/09 07:57:43;;;;;;;;;;;41.70;99.90;;;;;;5029086;28;19917;-69
2021/06/09 08:00:11;;;;;;;;;;;42.10;90.70;;;;;;5027118;28;20371;-69
2021/06/09 08:02:39;;;;;;;;;;;42.00;86.20;;;;;;5036569;28;19917;-69
2021/06/09 08:05:06;;;;;;;;;;;41.20;80.70;;;;;;5039824;28;20128;-69
2021/06/09 08:07:31;;;;;;;;;;;40.30;75.30;;;;;;5047994;28;20223;-68
2021/06/09 08:09:57;;;;;;;;;;;39.30;71.40;;;;;;5035830;28;19921;-68
2021/06/09 08:12:22;;;;;;;;;;;38.90;70.20;;;;;;5028659;28;19917;-67
2021/06/09 08:14:48;;;;;;;;;;;38.90;70.30;;;;;;5038073;28;19917;-69
2021/06/09 08:17:14;;;;;;;;;;;39.60;71.50;;;;;;5040364;28;19909;-69
2021/06/09 08:19:39;;;;;;;;;;;40.70;72.20;;;;;;5027092;28;19921;-66
2021/06/09 08:22:05;;;;;;;;;;;41.60;71.40;;;;;;5028847;28;19909;-66
2021/06/09 08:24:31;;;;;;;;;;;41.90;69.00;;;;;;5027451;28;20319;-69
2021/06/09 08:27:03;;;;;;;;;;;42.40;65.60;;;;;;5028190;28;19917;-69
2021/06/09 08:29:29;;;;;;;;;;;42.80;62.60;;;;;;5027822;28;20381;-69
2021/06/09 08:31:55;;;;;;;;;;;43.40;60.00;;;;;;5040627;28;19954;-68
2021/06/09 08:34:20;;;;;;;;;;;43.10;55.20;;;;;;5047687;28;19999;-69
2021/06/09 08:36:45;;;;;;;;;;;42.10;50.80;;;;;;5048504;28;20382;-68
2021/06/09 08:39:12;;;;;;;;;;;41.10;62.00;;;;;;5033257;28;19917;-69
2021/06/09 08:41:43;;;;;;;;;;;39.70;46.70;;;;;;5028364;28;19946;-69
2021/06/09 08:44:09;;;;;;;;;;;38.50;46.30;;;;;;5027023;28;19912;-69
2021/06/09 08:46:36;;;;;;;;;;;38.70;48.80;;;;;;5027643;28;19921;-66
2021/06/09 08:49:03;;;;;;;;;;;40.10;50.20;;;;;;5026916;28;19928;-69
2021/06/09 08:51:30;;;;;;;;;;;41.10;50.90;;;;;;5028191;28;19913;-68
2021/06/09 08:53:55;;;;;;;;;;;42.00;51.70;;;;;;5027524;28;20023;-69
2021/06/09 08:56:22;;;;;;;;;;;42.00;50.10;;;;;;5028208;28;20389;-69
2021/06/09 08:58:47;;;;;;;;;;;41.50;47.90;;;;;;5026832;28;19919;-69
2021/06/09 09:01:14;;;;;;;;;;;41.40;46.30;;;;;;5008978;28;19928;-66
2021/06/09 09:03:44;;;;;;;;;;;41.00;44.90;;;;;;5036086;28;19909;-68
2021/06/09 09:06:10;;;;;;;;;;;40.20;42.40;;;;;;5027175;28;20000;-69
2021/06/09 09:08:35;;;;;;;;;;;38.90;40.00;;;;;;5027634;28;20004;-63
2021/06/09 09:11:01;;;;;;;;;;;38.00;53.80;;;;;;5026155;28;20294;-67
2021/06/09 09:13:26;;;;;;;;;;;37.90;42.20;;;;;;5042849;28;19915;-67
2021/06/09 09:15:52;;;;;;;;;;;37.90;43.40;;;;;;5046386;28;19916;-68
2021/06/09 09:18:18;;;;;;;;;;;37.40;44.30;;;;;;5029300;28;20059;-68
2021/06/09 09:20:46;;;;;;;;;;;37.10;44.50;;;;;;5026216;28;20350;-67
2021/06/09 09:23:22;;;;;;;;;;;36.90;45.30;;;;;;5026860;28;19970;-66
2021/06/09 09:25:49;;;;;;;;;;;37.50;47.90;;;;;;5026699;28;19913;-67
2021/06/09 09:28:29;;;;;;;;;;;38.70;49.00;;;;;;5026365;28;19909;-68
2021/06/09 09:31:04;;;;;;;;;;;39.50;50.00;;;;;;5030124;28;19974;-68
2021/06/09 09:33:31;;;;;;;;;;;39.30;49.00;;;;;;5046891;28;19935;-68
2021/06/09 09:35:56;;;;;;;;;;;38.60;45.80;;;;;;5046917;28;20384;-68
2021/06/09 09:38:30;;;;;;;;;;;37.80;44.80;;;;;;5039272;28;19913;-68
2021/06/09 09:41:02;;;;;;;;;;;37.30;45.00;;;;;;5025741;28;19913;-68
2021/06/09 09:43:39;;;;;;;;;;;36.80;45.60;;;;;;5034168;28;19935;-68
2021/06/09 09:46:09;;;;;;;;;;;37.50;48.70;;;;;;5031831;28;20235;-67
2021/06/09 09:48:38;;;;;;;;;;;39.50;51.70;;;;;;5028856;28;19921;-68
2021/06/09 09:51:04;;;;;;;;;;;39.30;48.40;;;;;;5026347;28;20281;-69
2021/06/09 09:53:31;;;;;;;;;;;39.20;46.80;;;;;;5026422;28;20016;-67
2021/06/09 09:56:09;;;;;;;;;;;39.20;45.20;;;;;;5029301;28;20011;-67
2021/06/09 09:59:01;;;;;;;;;;;39.80;45.40;;;;;;5030628;28;19921;-66
2021/06/09 10:01:28;;;;;;;;;;;38.70;40.90;;;;;;5023186;28;20027;-67
2021/06/09 10:03:55;;;;;;;;;;;39.60;42.50;;;;;;5041416;28;19927;-68
2021/06/09 10:06:23;;;;;;;;;;;40.40;41.40;;;;;;5050089;28;19916;-69
2021/06/09 10:08:49;;;;;;;;;;;41.50;41.90;;;;;;5049885;28;20349;-68
2021/06/09 10:11:15;;;;;;;;;;;42.50;42.40;;;;;;5035375;28;19914;-68
2021/06/09 10:13:41;;;;;;;;;;;42.30;38.70;;;;;;5029625;28;20012;-68
2021/06/09 10:16:23;;;;;;;;;;;41.20;32.20;;;;;;5030055;28;19992;-67
2021/06/09 10:19:04;;;;;;;;;;;39.20;28.30;;;;;;5029035;28;20374;-68
2021/06/09 10:21:30;;;;;;;;;;;38.60;28.20;;;;;;5030180;28;19916;-68
2021/06/09 10:24:00;;;;;;;;;;;39.40;30.10;;;;;;5029194;28;19913;-67
2021/06/09 10:26:25;;;;;;;;;;;40.10;29.20;;;;;;5030165;28;20437;-68
2021/06/09 10:29:11;;;;;;;;;;;39.70;27.70;;;;;;5030411;28;19996;-69
2021/06/09 10:31:44;;;;;;;;;;;39.80;28.00;;;;;;5040142;28;20026;-71
2021/06/09 10:34:10;;;;;;;;;;;40.90;28.10;;;;;;5049069;28;19909;-70
2021/06/09 10:36:43;;;;;;;;;;;42.30;28.70;;;;;;5050057;28;20126;-69
2021/06/09 10:39:09;;;;;;;;;;;41.90;26.70;;;;;;5034784;28;19921;-69
2021/06/09 10:41:38;;;;;;;;;;;41.50;24.70;;;;;;5030313;28;20409;-70
2021/06/09 10:44:04;;;;;;;;;;;41.00;24.20;;;;;;5028792;28;19917;-70
2021/06/09 10:46:33;;;;;;;;;;;40.20;22.80;;;;;;5040138;28;20401;-70
2021/06/09 10:49:00;;;;;;;;;;;38.90;21.60;;;;;;5028404;28;19920;-69
2021/06/09 10:51:25;;;;;;;;;;;37.70;20.70;;;;;;5029641;28;19913;-70
2021/06/09 10:53:51;;;;;;;;;;;36.90;20.90;;;;;;5029296;28;19973;-69
2021/06/09 10:56:17;;;;;;;;;;;36.10;20.80;;;;;;5045308;28;20397;-68
2021/06/09 10:58:43;;;;;;;;;;;35.30;20.60;;;;;;5049197;28;19916;-69
2021/06/09 11:01:09;;;;;;;;;;;34.10;20.40;;;;;;5048151;28;19916;-69
2021/06/09 11:03:35;;;;;;;;;;;33.50;21.10;;;;;;5037218;28;19920;-69
2021/06/09 11:06:02;;;;;;;;;;;33.20;22.60;;;;;;5049253;28;20332;-68
2021/06/09 11:08:28;;;;;;;;;;;32.90;24.30;;;;;;5040371;28;20397;-69
2021/06/09 11:10:54;;;;;;;;;;;33.50;26.70;;;;;;5036419;28;19952;-67
2021/06/09 11:13:26;;;;;;;;;;;33.50;28.80;;;;;;5036200;28;20422;-69
2021/06/09 11:16:02;;;;;;;;;;;33.80;30.90;;;;;;5041535;28;19919;-69
2021/06/09 11:18:33;;;;;;;;;;;33.70;32.30;;;;;;5028432;28;19925;-68
2021/06/09 11:21:02;;;;;;;;;;;33.10;32.20;;;;;;5023405;28;19917;-68
2021/06/09 11:23:29;;;;;;;;;;;32.70;32.80;;;;;;5027170;28;19921;-69
2021/06/09 11:25:55;;;;;;;;;;;33.20;36.90;;;;;;5027912;28;19937;-66
2021/06/09 11:28:35;;;;;;;;;;;33.50;37.90;;;;;;5027386;28;20109;-70
2021/06/09 11:31:03;;;;;;;;;;;33.70;40.10;;;;;;5032478;28;20309;-70
2021/06/09 11:33:47;;;;;;;;;;;33.60;41.50;;;;;;5048049;28;19935;-68
2021/06/09 11:36:18;;;;;;;;;;;32.80;40.80;;;;;;5049003;28;19916;-69
2021/06/09 11:38:47;;;;;;;;;;;32.40;42.10;;;;;;5038099;28;20050;-68
2021/06/09 11:41:14;;;;;;;;;;;31.50;42.20;;;;;;5028119;28;20310;-67
2021/06/09 11:43:47;;;;;;;;;;;30.70;44.70;;;;;;5027616;28;20398;-69
2021/06/09 11:46:19;;;;;;;;;;;30.40;47.40;;;;;;5028074;28;19952;-69
2021/06/09 11:49:04;;;;;;;;;;;30.50;50.80;;;;;;5027734;28;19916;-67
2021/06/09 11:51:36;;;;;;;;;;;31.10;53.00;;;;;;5028319;28;19976;-69
2021/06/09 11:54:18;;;;;;;;;;;31.40;56.10;;;;;;5027728;28;19910;-68
2021/06/09 11:56:43;;;;;;;;;;;31.00;57.60;;;;;;5029084;28;19959;-68
2021/06/09 11:59:20;;;;;;;;;;;30.40;62.40;;;;;;5026803;28;20437;-69
2021/06/09 12:01:47;;;;;;;;;;;30.20;66.60;;;;;;5029440;28;20328;-68
2021/06/09 12:04:16;;;;;;;;;;;30.50;73.50;;;;;;5039618;28;19909;-69
2021/06/09 12:06:43;;;;;;;;;;;30.70;75.00;;;;;;5047435;28;19920;-69
2021/06/09 12:09:08;;;;;;;;;;;30.40;76.90;;;;;;5046653;28;19927;-68
2021/06/09 12:11:38;;;;;;;;;;;29.70;77.60;;;;;;5031469;28;19917;-69
2021/06/09 12:14:36;;;;;;;;;;;29.10;82.70;;;;;;5027376;28;19917;-69
2021/06/09 12:17:10;;;;;;;;;;;28.80;87.40;;;;;;5003686;28;19909;-69
2021/06/09 12:19:37;;;;;;;;;;;28.30;91.00;;;;;;5006819;28;19918;-69
2021/06/09 12:22:04;;;;;;;;;;;28.00;96.60;;;;;;5008426;28;19994;-67
2021/06/09 12:24:30;;;;;;;;;;;27.80;99.90;;;;;;5007444;28;19989;-68
2021/06/09 12:26:58;;;;;;;;;;;27.50;99.90;;;;;;5008008;28;19980;-69
2021/06/09 12:29:25;;;;;;;;;;;27.50;99.90;;;;;;5006723;28;20512;-68
2021/06/09 12:31:51;;;;;;;;;;;27.50;99.90;;;;;;5020278;28;19967;-70
2021/06/09 12:34:20;;;;;;;;;;;27.60;99.90;;;;;;5027372;28;20007;-70
2021/06/09 12:36:56;;;;;;;;;;;27.50;99.90;;;;;;5028234;28;19972;-69
2021/06/09 12:39:23;;;;;;;;;;;27.50;99.90;;;;;;5026248;28;20037;-70
2021/06/09 12:41:49;;;;;;;;;;;27.20;99.90;;;;;;5027757;28;19986;-67
2021/06/09 12:44:15;;;;;;;;;;;27.20;99.90;;;;;;5035502;28;19909;-70
2021/06/09 12:46:48;;;;;;;;;;;27.10;99.90;;;;;;5044204;28;19955;-70
2021/06/09 12:49:21;;;;;;;;;;;26.80;99.90;;;;;;5044979;28;20053;-69
2021/06/09 12:51:59;;;;;;;;;;;26.60;99.90;;;;;;5046914;28;19933;-70
2021/06/09 12:54:24;;;;;;;;;;;26.40;99.90;;;;;;5046491;28;19909;-70
2021/06/09 12:56:49;;;;;;;;;;;26.30;99.90;;;;;;5046737;28;20362;-67
2021/06/09 12:59:28;;;;;;;;;;;26.20;99.90;;;;;;5045809;28;19920;-68
2021/06/09 13:01:57;;;;;;;;;;;26.00;99.90;;;;;;5043022;28;20429;-68
2021/06/09 13:04:37;;;;;;;;;;;25.70;99.90;;;;;;5037938;28;20414;-69
2021/06/09 13:07:02;;;;;;;;;;;25.50;99.90;;;;;;5045970;28;19909;-68
2021/06/09 13:09:28;;;;;;;;;;;25.40;99.90;;;;;;5046196;28;20051;-69
2021/06/09 13:11:54;;;;;;;;;;;25.20;99.90;;;;;;5028193;28;20336;-69
2021/06/09 13:14:28;;;;;;;;;;;25.00;99.90;;;;;;5026620;28;20528;-68
2021/06/09 13:16:59;;;;;;;;;;;24.90;99.90;;;;;;5026731;28;20059;-67
2021/06/09 13:19:26;;;;;;;;;;;24.80;99.90;;;;;;5025694;28;19921;-69
2021/06/09 13:21:51;;;;;;;;;;;24.60;99.90;;;;;;5027402;28;19989;-67
2021/06/09 13:24:32;;;;;;;;;;;24.50;99.90;;;;;;5027181;28;20003;-69
2021/06/09 13:27:03;;;;;;;;;;;24.50;99.90;;;;;;5027440;28;19920;-65
2021/06/09 13:29:34;;;;;;;;;;;24.40;99.90;;;;;;5027476;28;19932;-67
2021/06/09 13:32:09;;;;;;;;;;;24.40;99.90;;;;;;5044279;28;19942;-67
2021/06/09 13:34:35;;;;;;;;;;;24.40;99.90;;;;;;5050684;28;19944;-66
2021/06/09 13:37:01;;;;;;;;;;;24.40;99.90;;;;;;5050647;28;19920;-69
2021/06/09 13:39:36;;;;;;;;;;;24.60;99.90;;;;;;5033719;28;19917;-68
2021/06/09 13:42:01;;;;;;;;;;;24.70;99.90;;;;;;5031220;28;19963;-68
2021/06/09 13:44:33;;;;;;;;;;;24.90;99.90;;;;;;5030639;28;20273;-67
2021/06/09 13:47:00;;;;;;;;;;;25.10;99.90;;;;;;5030849;28;20255;-68
2021/06/09 13:49:27;;;;;;;;;;;25.30;99.90;;;;;;5029774;28;20028;-68
2021/06/09 13:51:52;;;;;;;;;;;25.30;99.90;;;;;;5030961;28;19968;-70
2021/06/09 13:54:28;;;;;;;;;;;25.30;99.90;;;;;;5030912;28;19948;-69
2021/06/09 13:56:53;;;;;;;;;;;25.40;99.90;;;;;;5030305;28;20357;-68
2021/06/09 13:59:23;;;;;;;;;;;25.40;99.90;;;;;;5029198;28;20051;-70
2021/06/09 14:01:51;;;;;;;;;;;25.30;99.90;;;;;;5032058;28;19909;-69
2021/06/09 14:04:18;;;;;;;;;;;25.40;99.90;;;;;;5041942;28;19923;-69
2021/06/09 14:06:44;;;;;;;;;;;25.50;99.90;;;;;;5049980;28;20090;-69
2021/06/09 14:09:11;;;;;;;;;;;25.40;99.90;;;;;;5040934;28;20083;-70
2021/06/09 14:11:55;;;;;;;;;;;25.50;99.90;;;;;;5033696;28;20079;-68
2021/06/09 14:14:24;;;;;;;;;;;25.60;99.90;;;;;;5030250;28;20259;-68
2021/06/09 14:17:05;;;;;;;;;;;25.70;99.90;;;;;;5030041;28;19910;-67
2021/06/09 14:19:30;;;;;;;;;;;25.80;99.90;;;;;;5029167;28;19921;-69
2021/06/09 14:21:56;;;;;;;;;;;26.00;99.90;;;;;;5024135;28;20044;-67
2021/06/09 14:24:22;;;;;;;;;;;26.30;99.90;;;;;;5009644;28;20008;-69
2021/06/09 14:26:50;;;;;;;;;;;26.50;99.90;;;;;;5023689;28;20079;-68
2021/06/09 14:29:16;;;;;;;;;;;26.70;99.90;;;;;;5027089;28;19909;-69